sensor_id;sensor_type;location;lat;lon;timestamp;pressure;altitude;pressure_sealevel;temperature;humidity
46778;BME280;32536;47.128;8.746;2023-01-25T00:00:30;92706.91;;;1.06;56.50
46778;BME280;32536;47.128;8.746;2023-01-25T00:02:56;92697.75;;;1.04;55.90
46778;BME280;32536;47.128;8.746;2023-01-25T00:05:23;92693.56;;;1.03;56.66
46778;BME280;32536;47.128;8.746;2023-01-25T00:07:50;92684.53;;;1.04;56.36
46778;BME280;32536;47.128;8.746;2023-01-25T00:10:17;92682.56;;;1.01;56.47
46778;BME280;32536;47.128;8.746;2023-01-25T00:12:44;92686.59;;;0.98;56.57
46778;BME280;32536;47.128;8.746;2023-01-25T00:15:11;92677.91;;;0.98;56.67
46778;BME280;32536;47.128;8.746;2023-01-25T00:17:38;92680.38;;;1.03;56.46
46778;BME280;32536;47.128;8.746;2023-01-25T00:20:05;92685.16;;;1.09;57.37
46778;BME280;32536;47.128;8.746;2023-01-25T00:22:32;92681.22;;;1.16;56.77
46778;BME280;32536;47.128;8.746;2023-01-25T00:24:59;92682.91;;;1.20;56.39
46778;BME280;32536;47.128;8.746;2023-01-25T00:27:26;92682.72;;;1.25;57.17
46778;BME280;32536;47.128;8.746;2023-01-25T00:29:53;92671.69;;;1.32;57.18
46778;BME280;32536;47.128;8.746;2023-01-25T00:34:50;92673.31;;;1.46;57.22
46778;BME280;32536;47.128;8.746;2023-01-25T00:39:45;92662.66;;;1.54;57.22
46778;BME280;32536;47.128;8.746;2023-01-25T00:42:16;92657.97;;;1.60;57.46
46778;BME280;32536;47.128;8.746;2023-01-25T00:44:44;92651.06;;;1.68;57.77
46778;BME280;32536;47.128;8.746;2023-01-25T00:47:11;92651.97;;;1.72;57.58
46778;BME280;32536;47.128;8.746;2023-01-25T00:49:40;92649.03;;;1.73;57.92
46778;BME280;32536;47.128;8.746;2023-01-25T00:52:08;92647.47;;;1.72;57.70
46778;BME280;32536;47.128;8.746;2023-01-25T00:54:35;92646.81;;;1.75;57.68
46778;BME280;32536;47.128;8.746;2023-01-25T00:57:02;92640.75;;;1.75;57.02
46778;BME280;32536;47.128;8.746;2023-01-25T00:59:29;92637.66;;;1.73;56.86
46778;BME280;32536;47.128;8.746;2023-01-25T01:01:56;92635.34;;;1.71;57.21
46778;BME280;32536;47.128;8.746;2023-01-25T01:04:23;92635.34;;;1.71;56.87
46778;BME280;32536;47.128;8.746;2023-01-25T01:06:51;92639.22;;;1.74;56.96
46778;BME280;32536;47.128;8.746;2023-01-25T01:09:19;92646.03;;;1.75;57.02
46778;BME280;32536;47.128;8.746;2023-01-25T01:11:46;92647.25;;;1.78;57.47
46778;BME280;32536;47.128;8.746;2023-01-25T01:14:13;92656.88;;;1.82;57.34
46778;BME280;32536;47.128;8.746;2023-01-25T01:17:05;92666.00;;;1.85;56.73
46778;BME280;32536;47.128;8.746;2023-01-25T01:19:32;92672.06;;;1.85;57.43
46778;BME280;32536;47.128;8.746;2023-01-25T01:21:59;92669.41;;;1.85;57.67
46778;BME280;32536;47.128;8.746;2023-01-25T01:24:25;92677.09;;;1.78;57.54
46778;BME280;32536;47.128;8.746;2023-01-25T01:26:52;92666.09;;;1.76;57.62
46778;BME280;32536;47.128;8.746;2023-01-25T01:29:19;92669.16;;;1.78;58.17
46778;BME280;32536;47.128;8.746;2023-01-25T01:31:49;92686.13;;;1.77;57.84
46778;BME280;32536;47.128;8.746;2023-01-25T01:34:17;92681.47;;;1.74;58.03
46778;BME280;32536;47.128;8.746;2023-01-25T01:36:44;92682.56;;;1.73;58.15
46778;BME280;32536;47.128;8.746;2023-01-25T01:39:11;92680.06;;;1.76;58.54
46778;BME280;32536;47.128;8.746;2023-01-25T01:41:38;92666.97;;;1.80;58.31
46778;BME280;32536;47.128;8.746;2023-01-25T01:44:05;92661.06;;;1.83;58.31
46778;BME280;32536;47.128;8.746;2023-01-25T01:46:38;92657.75;;;1.86;57.95
46778;BME280;32536;47.128;8.746;2023-01-25T01:49:25;92652.59;;;1.90;56.97
46778;BME280;32536;47.128;8.746;2023-01-25T01:52:00;92643.38;;;1.96;57.08
46778;BME280;32536;47.128;8.746;2023-01-25T01:54:35;92635.09;;;1.98;57.40
46778;BME280;32536;47.128;8.746;2023-01-25T01:57:10;92644.72;;;2.02;57.78
46778;BME280;32536;47.128;8.746;2023-01-25T01:59:50;92635.03;;;2.06;58.01
46778;BME280;32536;47.128;8.746;2023-01-25T02:02:18;92626.13;;;2.11;57.31
46778;BME280;32536;47.128;8.746;2023-01-25T02:04:47;92630.97;;;2.09;57.07
46778;BME280;32536;47.128;8.746;2023-01-25T02:07:34;92639.22;;;2.07;56.23
46778;BME280;32536;47.128;8.746;2023-01-25T02:10:08;92638.78;;;2.05;56.89
46778;BME280;32536;47.128;8.746;2023-01-25T02:12:36;92633.63;;;2.09;57.29
46778;BME280;32536;47.128;8.746;2023-01-25T02:15:04;92639.34;;;2.11;57.04
46778;BME280;32536;47.128;8.746;2023-01-25T02:17:34;92638.69;;;2.14;56.91
46778;BME280;32536;47.128;8.746;2023-01-25T02:20:06;92626.44;;;2.10;57.00
46778;BME280;32536;47.128;8.746;2023-01-25T02:25:43;92634.09;;;1.90;57.61
46778;BME280;32536;47.128;8.746;2023-01-25T02:28:18;92624.94;;;1.87;58.20
46778;BME280;32536;47.128;8.746;2023-01-25T02:30:54;92620.31;;;1.84;57.86
46778;BME280;32536;47.128;8.746;2023-01-25T02:33:25;92627.34;;;1.80;58.36
46778;BME280;32536;47.128;8.746;2023-01-25T02:35:57;92623.16;;;1.79;58.28
46778;BME280;32536;47.128;8.746;2023-01-25T02:38:37;92633.94;;;1.74;58.35
46778;BME280;32536;47.128;8.746;2023-01-25T02:41:14;92626.97;;;1.69;58.25
46778;BME280;32536;47.128;8.746;2023-01-25T02:44:10;92627.81;;;1.61;58.38
46778;BME280;32536;47.128;8.746;2023-01-25T02:46:39;92616.69;;;1.55;58.80
46778;BME280;32536;47.128;8.746;2023-01-25T02:49:08;92617.78;;;1.54;58.22
46778;BME280;32536;47.128;8.746;2023-01-25T02:51:38;92614.47;;;1.57;58.17
46778;BME280;32536;47.128;8.746;2023-01-25T02:54:08;92614.28;;;1.63;58.67
46778;BME280;32536;47.128;8.746;2023-01-25T02:56:38;92601.34;;;1.70;58.65
46778;BME280;32536;47.128;8.746;2023-01-25T02:59:09;92603.00;;;1.74;58.64
46778;BME280;32536;47.128;8.746;2023-01-25T03:01:39;92608.53;;;1.82;58.76
46778;BME280;32536;47.128;8.746;2023-01-25T03:04:07;92606.78;;;1.86;58.31
46778;BME280;32536;47.128;8.746;2023-01-25T03:06:34;92617.78;;;1.88;58.37
46778;BME280;32536;47.128;8.746;2023-01-25T03:09:03;92615.47;;;1.86;58.50
46778;BME280;32536;47.128;8.746;2023-01-25T03:11:33;92623.41;;;1.86;58.02
46778;BME280;32536;47.128;8.746;2023-01-25T03:14:00;92627.47;;;1.84;58.72
46778;BME280;32536;47.128;8.746;2023-01-25T03:16:29;92611.50;;;1.80;58.95
46778;BME280;32536;47.128;8.746;2023-01-25T03:18:56;92614.13;;;1.80;58.96
46778;BME280;32536;47.128;8.746;2023-01-25T03:21:23;92601.69;;;1.81;58.95
46778;BME280;32536;47.128;8.746;2023-01-25T03:23:56;92597.41;;;1.76;59.08
46778;BME280;32536;47.128;8.746;2023-01-25T03:26:27;92588.13;;;1.70;59.06
46778;BME280;32536;47.128;8.746;2023-01-25T03:28:54;92589.09;;;1.65;58.94
46778;BME280;32536;47.128;8.746;2023-01-25T03:31:21;92582.59;;;1.63;59.49
46778;BME280;32536;47.128;8.746;2023-01-25T03:33:47;92581.81;;;1.62;59.10
46778;BME280;32536;47.128;8.746;2023-01-25T03:36:14;92588.78;;;1.67;59.42
46778;BME280;32536;47.128;8.746;2023-01-25T03:38:41;92587.00;;;1.71;59.30
46778;BME280;32536;47.128;8.746;2023-01-25T03:41:08;92580.63;;;1.72;59.39
46778;BME280;32536;47.128;8.746;2023-01-25T03:43:37;92579.34;;;1.78;59.14
46778;BME280;32536;47.128;8.746;2023-01-25T03:46:04;92574.19;;;1.82;58.71
46778;BME280;32536;47.128;8.746;2023-01-25T03:48:31;92570.09;;;1.84;59.07
46778;BME280;32536;47.128;8.746;2023-01-25T03:50:58;92576.75;;;1.90;59.01
46778;BME280;32536;47.128;8.746;2023-01-25T03:53:27;92569.59;;;1.91;58.64
46778;BME280;32536;47.128;8.746;2023-01-25T03:56:07;92577.84;;;1.89;58.99
46778;BME280;32536;47.128;8.746;2023-01-25T03:58:36;92579.69;;;1.89;58.79
46778;BME280;32536;47.128;8.746;2023-01-25T04:01:05;92572.75;;;1.84;58.69
46778;BME280;32536;47.128;8.746;2023-01-25T04:03:32;92576.91;;;1.73;58.86
46778;BME280;32536;47.128;8.746;2023-01-25T04:05:59;92574.69;;;1.63;58.94
46778;BME280;32536;47.128;8.746;2023-01-25T04:08:26;92568.34;;;1.55;59.21
46778;BME280;32536;47.128;8.746;2023-01-25T04:10:55;92564.84;;;1.51;58.63
46778;BME280;32536;47.128;8.746;2023-01-25T04:13:28;92559.75;;;1.46;58.97
46778;BME280;32536;47.128;8.746;2023-01-25T04:15:56;92565.88;;;1.37;59.01
46778;BME280;32536;47.128;8.746;2023-01-25T04:18:22;92564.84;;;1.30;58.75
46778;BME280;32536;47.128;8.746;2023-01-25T04:20:53;92568.34;;;1.21;59.01
46778;BME280;32536;47.128;8.746;2023-01-25T04:23:22;92568.53;;;1.16;59.01
46778;BME280;32536;47.128;8.746;2023-01-25T04:26:00;92563.00;;;1.09;59.05
46778;BME280;32536;47.128;8.746;2023-01-25T04:28:31;92563.63;;;1.06;59.41
46778;BME280;32536;47.128;8.746;2023-01-25T04:30:58;92563.34;;;0.99;59.26
46778;BME280;32536;47.128;8.746;2023-01-25T04:33:26;92557.66;;;0.97;59.09
46778;BME280;32536;47.128;8.746;2023-01-25T04:35:52;92552.81;;;0.99;59.38
46778;BME280;32536;47.128;8.746;2023-01-25T04:38:20;92548.63;;;0.98;59.33
46778;BME280;32536;47.128;8.746;2023-01-25T04:40:47;92556.22;;;0.99;59.37
46778;BME280;32536;47.128;8.746;2023-01-25T04:43:14;92554.69;;;0.98;59.43
46778;BME280;32536;47.128;8.746;2023-01-25T04:45:42;92552.69;;;0.95;59.05
46778;BME280;32536;47.128;8.746;2023-01-25T04:48:10;92541.22;;;0.91;59.44
46778;BME280;32536;47.128;8.746;2023-01-25T04:50:39;92538.91;;;0.89;59.42
46778;BME280;32536;47.128;8.746;2023-01-25T04:53:07;92546.84;;;0.89;59.26
46778;BME280;32536;47.128;8.746;2023-01-25T04:55:35;92541.56;;;0.89;59.28
46778;BME280;32536;47.128;8.746;2023-01-25T04:58:02;92544.81;;;0.86;59.46
46778;BME280;32536;47.128;8.746;2023-01-25T05:00:30;92540.78;;;0.89;59.53
46778;BME280;32536;47.128;8.746;2023-01-25T05:02:57;92549.47;;;0.89;59.47
46778;BME280;32536;47.128;8.746;2023-01-25T05:05:23;92543.06;;;0.90;59.22
46778;BME280;32536;47.128;8.746;2023-01-25T05:07:50;92543.06;;;0.90;59.35
46778;BME280;32536;47.128;8.746;2023-01-25T05:10:17;92543.66;;;0.96;59.53
46778;BME280;32536;47.128;8.746;2023-01-25T05:12:44;92546.25;;;1.05;59.24
46778;BME280;32536;47.128;8.746;2023-01-25T05:15:11;92536.72;;;1.13;59.73
46778;BME280;32536;47.128;8.746;2023-01-25T05:17:37;92530.47;;;1.17;59.57
46778;BME280;32536;47.128;8.746;2023-01-25T05:20:05;92532.34;;;1.17;59.56
46778;BME280;32536;47.128;8.746;2023-01-25T05:22:32;92544.13;;;1.19;59.53
46778;BME280;32536;47.128;8.746;2023-01-25T05:24:58;92540.59;;;1.15;59.51
46778;BME280;32536;47.128;8.746;2023-01-25T05:27:27;92533.00;;;1.14;59.35
46778;BME280;32536;47.128;8.746;2023-01-25T05:29:55;92539.03;;;1.14;59.46
46778;BME280;32536;47.128;8.746;2023-01-25T05:32:23;92534.09;;;1.13;59.38
46778;BME280;32536;47.128;8.746;2023-01-25T05:34:50;92527.06;;;1.17;59.71
46778;BME280;32536;47.128;8.746;2023-01-25T05:37:18;92525.91;;;1.26;59.47
46778;BME280;32536;47.128;8.746;2023-01-25T05:39:46;92521.44;;;1.39;59.61
46778;BME280;32536;47.128;8.746;2023-01-25T05:42:15;92526.84;;;1.43;59.52
46778;BME280;32536;47.128;8.746;2023-01-25T05:44:44;92533.66;;;1.44;59.19
46778;BME280;32536;47.128;8.746;2023-01-25T05:47:12;92524.63;;;1.45;59.59
46778;BME280;32536;47.128;8.746;2023-01-25T05:49:40;92525.84;;;1.48;59.33
46778;BME280;32536;47.128;8.746;2023-01-25T05:52:11;92520.69;;;1.51;59.06
46778;BME280;32536;47.128;8.746;2023-01-25T05:54:39;92511.47;;;1.57;59.02
46778;BME280;32536;47.128;8.746;2023-01-25T05:57:06;92524.94;;;1.65;58.88
46778;BME280;32536;47.128;8.746;2023-01-25T05:59:32;92524.75;;;1.70;58.60
46778;BME280;32536;47.128;8.746;2023-01-25T06:01:59;92515.38;;;1.72;58.96
46778;BME280;32536;47.128;8.746;2023-01-25T06:04:26;92523.63;;;1.71;58.04
46778;BME280;32536;47.128;8.746;2023-01-25T06:06:53;92524.53;;;1.75;58.38
46778;BME280;32536;47.128;8.746;2023-01-25T06:09:19;92526.84;;;1.76;57.60
46778;BME280;32536;47.128;8.746;2023-01-25T06:11:47;92521.56;;;1.76;57.58
46778;BME280;32536;47.128;8.746;2023-01-25T06:14:14;92528.25;;;1.74;56.71
46778;BME280;32536;47.128;8.746;2023-01-25T06:16:40;92526.25;;;1.71;57.38
46778;BME280;32536;47.128;8.746;2023-01-25T06:19:08;92520.22;;;1.70;57.29
46778;BME280;32536;47.128;8.746;2023-01-25T06:21:37;92531.25;;;1.72;57.50
46778;BME280;32536;47.128;8.746;2023-01-25T06:24:04;92538.06;;;1.73;57.60
46778;BME280;32536;47.128;8.746;2023-01-25T06:26:31;92534.97;;;1.71;57.39
46778;BME280;32536;47.128;8.746;2023-01-25T06:28:57;92530.66;;;1.67;56.95
46778;BME280;32536;47.128;8.746;2023-01-25T06:31:24;92527.44;;;1.61;56.87
46778;BME280;32536;47.128;8.746;2023-01-25T06:33:51;92521.94;;;1.54;56.79
46778;BME280;32536;47.128;8.746;2023-01-25T06:36:19;92525.72;;;1.44;56.17
46778;BME280;32536;47.128;8.746;2023-01-25T06:38:48;92521.88;;;1.41;56.81
46778;BME280;32536;47.128;8.746;2023-01-25T06:41:19;92529.66;;;1.38;56.60
46778;BME280;32536;47.128;8.746;2023-01-25T06:43:47;92526.34;;;1.28;56.21
46778;BME280;32536;47.128;8.746;2023-01-25T06:46:15;92527.66;;;1.22;56.51
46778;BME280;32536;47.128;8.746;2023-01-25T06:48:42;92532.00;;;1.18;56.59
46778;BME280;32536;47.128;8.746;2023-01-25T06:51:11;92537.16;;;1.15;56.34
46778;BME280;32536;47.128;8.746;2023-01-25T06:53:44;92534.41;;;1.11;55.92
46778;BME280;32536;47.128;8.746;2023-01-25T06:56:12;92530.75;;;1.03;53.99
46778;BME280;32536;47.128;8.746;2023-01-25T06:58:39;92531.06;;;1.02;56.57
46778;BME280;32536;47.128;8.746;2023-01-25T07:03:41;92516.53;;;0.95;56.98
46778;BME280;32536;47.128;8.746;2023-01-25T07:06:09;92520.59;;;0.93;56.62
46778;BME280;32536;47.128;8.746;2023-01-25T07:08:37;92516.47;;;0.83;56.35
46778;BME280;32536;47.128;8.746;2023-01-25T07:11:06;92518.84;;;0.76;56.50
46778;BME280;32536;47.128;8.746;2023-01-25T07:13:34;92512.06;;;0.66;56.51
46778;BME280;32536;47.128;8.746;2023-01-25T07:16:03;92514.31;;;0.55;56.33
46778;BME280;32536;47.128;8.746;2023-01-25T07:18:31;92509.03;;;0.55;57.15
46778;BME280;32536;47.128;8.746;2023-01-25T07:21:07;92513.66;;;0.58;57.32
46778;BME280;32536;47.128;8.746;2023-01-25T07:23:35;92512.09;;;0.57;56.76
46778;BME280;32536;47.128;8.746;2023-01-25T07:26:14;92511.22;;;0.53;55.68
46778;BME280;32536;47.128;8.746;2023-01-25T07:28:43;92506.41;;;0.55;57.43
46778;BME280;32536;47.128;8.746;2023-01-25T07:31:11;92504.19;;;0.57;56.79
46778;BME280;32536;47.128;8.746;2023-01-25T07:33:39;92508.09;;;0.60;56.73
46778;BME280;32536;47.128;8.746;2023-01-25T07:36:07;92508.09;;;0.60;56.94
46778;BME280;32536;47.128;8.746;2023-01-25T07:38:35;92507.75;;;0.61;57.37
46778;BME280;32536;47.128;8.746;2023-01-25T07:41:03;92510.53;;;0.65;57.44
46778;BME280;32536;47.128;8.746;2023-01-25T07:43:30;92507.88;;;0.65;56.87
46778;BME280;32536;47.128;8.746;2023-01-25T07:46:04;92504.91;;;0.67;56.21
46778;BME280;32536;47.128;8.746;2023-01-25T07:48:33;92510.84;;;0.63;56.68
46778;BME280;32536;47.128;8.746;2023-01-25T07:51:01;92509.31;;;0.62;56.52
46778;BME280;32536;47.128;8.746;2023-01-25T07:53:42;92507.09;;;0.64;56.88
46778;BME280;32536;47.128;8.746;2023-01-25T07:56:11;92517.03;;;0.68;57.24
46778;BME280;32536;47.128;8.746;2023-01-25T07:58:38;92507.38;;;0.72;57.33
46778;BME280;32536;47.128;8.746;2023-01-25T08:01:06;92509.03;;;0.76;57.48
46778;BME280;32536;47.128;8.746;2023-01-25T08:03:44;92517.97;;;0.84;57.50
46778;BME280;32536;47.128;8.746;2023-01-25T08:06:12;92512.06;;;0.87;57.17
46778;BME280;32536;47.128;8.746;2023-01-25T08:08:46;92516.59;;;0.87;56.69
46778;BME280;32536;47.128;8.746;2023-01-25T08:11:17;92521.22;;;0.90;57.34
46778;BME280;32536;47.128;8.746;2023-01-25T08:13:45;92516.25;;;0.88;56.83
46778;BME280;32536;47.128;8.746;2023-01-25T08:16:22;92514.91;;;0.82;54.81
46778;BME280;32536;47.128;8.746;2023-01-25T08:18:53;92514.59;;;0.84;56.81
46778;BME280;32536;47.128;8.746;2023-01-25T08:21:21;92509.03;;;0.76;56.70
46778;BME280;32536;47.128;8.746;2023-01-25T08:23:50;92505.81;;;0.71;56.98
46778;BME280;32536;47.128;8.746;2023-01-25T08:26:17;92506.47;;;0.68;57.26
46778;BME280;32536;47.128;8.746;2023-01-25T08:28:44;92503.38;;;0.66;57.16
46778;BME280;32536;47.128;8.746;2023-01-25T08:31:15;92504.53;;;0.56;55.90
46778;BME280;32536;47.128;8.746;2023-01-25T08:33:44;92509.94;;;0.59;57.20
46778;BME280;32536;47.128;8.746;2023-01-25T08:36:12;92504.97;;;0.58;57.21
46778;BME280;32536;47.128;8.746;2023-01-25T08:38:41;92503.91;;;0.59;57.15
46778;BME280;32536;47.128;8.746;2023-01-25T08:41:10;92500.59;;;0.62;57.46
46778;BME280;32536;47.128;8.746;2023-01-25T08:43:42;92501.66;;;0.70;57.50
46778;BME280;32536;47.128;8.746;2023-01-25T08:46:09;92496.66;;;0.77;57.24
46778;BME280;32536;47.128;8.746;2023-01-25T08:48:36;92496.31;;;0.78;57.16
46778;BME280;32536;47.128;8.746;2023-01-25T08:51:03;92495.66;;;0.82;57.19
46778;BME280;32536;47.128;8.746;2023-01-25T08:53:32;92493.94;;;0.86;57.65
46778;BME280;32536;47.128;8.746;2023-01-25T08:56:06;92484.94;;;0.87;56.94
46778;BME280;32536;47.128;8.746;2023-01-25T08:58:37;92482.84;;;0.92;57.58
46778;BME280;32536;47.128;8.746;2023-01-25T09:01:07;92481.31;;;0.91;56.67
46778;BME280;32536;47.128;8.746;2023-01-25T09:03:41;92475.03;;;0.84;56.29
46778;BME280;32536;47.128;8.746;2023-01-25T09:06:10;92473.13;;;0.84;56.90
46778;BME280;32536;47.128;8.746;2023-01-25T09:08:37;92474.25;;;0.83;56.52
46778;BME280;32536;47.128;8.746;2023-01-25T09:11:10;92465.00;;;0.77;55.72
46778;BME280;32536;47.128;8.746;2023-01-25T09:13:38;92458.59;;;0.78;56.72
46778;BME280;32536;47.128;8.746;2023-01-25T09:16:11;92462.78;;;0.79;57.04
46778;BME280;32536;47.128;8.746;2023-01-25T09:18:41;92453.03;;;0.79;57.03
46778;BME280;32536;47.128;8.746;2023-01-25T09:21:12;92454.88;;;0.79;56.42
46778;BME280;32536;47.128;8.746;2023-01-25T09:23:40;92455.66;;;0.79;57.17
46778;BME280;32536;47.128;8.746;2023-01-25T09:26:10;92463.72;;;0.83;57.34
46778;BME280;32536;47.128;8.746;2023-01-25T09:28:47;92449.09;;;0.86;56.93
46778;BME280;32536;47.128;8.746;2023-01-25T09:31:16;92447.22;;;0.86;56.89
46778;BME280;32536;47.128;8.746;2023-01-25T09:33:43;92437.00;;;0.85;56.92
46778;BME280;32536;47.128;8.746;2023-01-25T09:36:10;92445.53;;;0.82;57.24
46778;BME280;32536;47.128;8.746;2023-01-25T09:38:37;92435.66;;;0.78;57.26
46778;BME280;32536;47.128;8.746;2023-01-25T09:46:58;92439.72;;;0.76;57.69
46778;BME280;32536;47.128;8.746;2023-01-25T09:54:39;92434.69;;;0.83;57.58
46778;BME280;32536;47.128;8.746;2023-01-25T09:57:18;92442.41;;;0.88;57.44
46778;BME280;32536;47.128;8.746;2023-01-25T09:59:49;92437.38;;;0.95;57.72
46778;BME280;32536;47.128;8.746;2023-01-25T10:05:07;92433.56;;;1.05;57.94
46778;BME280;32536;47.128;8.746;2023-01-25T10:07:52;92432.25;;;1.11;56.93
46778;BME280;32536;47.128;8.746;2023-01-25T10:10:43;92437.34;;;1.17;57.37
46778;BME280;32536;47.128;8.746;2023-01-25T10:13:13;92436.69;;;1.20;57.83
46778;BME280;32536;47.128;8.746;2023-01-25T10:15:49;92437.13;;;1.22;57.54
46778;BME280;32536;47.128;8.746;2023-01-25T10:18:39;92429.44;;;1.29;58.18
46778;BME280;32536;47.128;8.746;2023-01-25T10:21:11;92419.47;;;1.35;57.61
46778;BME280;32536;47.128;8.746;2023-01-25T10:27:02;92419.59;;;1.51;57.89
46778;BME280;32536;47.128;8.746;2023-01-25T10:29:39;92414.44;;;1.54;57.72
46778;BME280;32536;47.128;8.746;2023-01-25T10:32:26;92412.13;;;1.53;56.06
46778;BME280;32536;47.128;8.746;2023-01-25T10:35:18;92410.25;;;1.53;56.71
46778;BME280;32536;47.128;8.746;2023-01-25T10:37:48;92397.59;;;1.59;57.77
46778;BME280;32536;47.128;8.746;2023-01-25T10:40:25;92393.31;;;1.67;57.69
46778;BME280;32536;47.128;8.746;2023-01-25T10:43:01;92392.56;;;1.79;57.62
46778;BME280;32536;47.128;8.746;2023-01-25T10:45:30;92391.69;;;1.87;57.85
46778;BME280;32536;47.128;8.746;2023-01-25T10:48:01;92389.78;;;1.87;57.67
46778;BME280;32536;47.128;8.746;2023-01-25T10:53:20;92392.00;;;1.73;58.27
46778;BME280;32536;47.128;8.746;2023-01-25T10:59:24;92390.03;;;1.70;58.45
46778;BME280;32536;47.128;8.746;2023-01-25T11:01:52;92387.16;;;1.75;58.55
46778;BME280;32536;47.128;8.746;2023-01-25T11:04:32;92380.78;;;1.76;58.57
46778;BME280;32536;47.128;8.746;2023-01-25T11:07:02;92383.09;;;1.78;58.95
46778;BME280;32536;47.128;8.746;2023-01-25T11:09:33;92382.84;;;1.83;58.59
46778;BME280;32536;47.128;8.746;2023-01-25T11:12:14;92381.97;;;1.91;58.38
46778;BME280;32536;47.128;8.746;2023-01-25T11:14:42;92375.47;;;2.01;58.63
46778;BME280;32536;47.128;8.746;2023-01-25T11:17:41;92374.16;;;2.07;58.43
46778;BME280;32536;47.128;8.746;2023-01-25T11:20:18;92375.00;;;2.11;58.32
46778;BME280;32536;47.128;8.746;2023-01-25T11:22:53;92365.34;;;2.15;58.59
46778;BME280;32536;47.128;8.746;2023-01-25T11:25:30;92375.13;;;2.15;58.36
46778;BME280;32536;47.128;8.746;2023-01-25T11:28:22;92367.28;;;2.18;58.02
46778;BME280;32536;47.128;8.746;2023-01-25T11:30:51;92364.75;;;2.22;58.50
46778;BME280;32536;47.128;8.746;2023-01-25T11:33:19;92359.16;;;2.23;58.34
46778;BME280;32536;47.128;8.746;2023-01-25T11:47:49;92351.81;;;2.45;57.98
46778;BME280;32536;47.128;8.746;2023-01-25T11:50:20;92338.78;;;2.52;58.04
46778;BME280;32536;47.128;8.746;2023-01-25T12:06:41;92320.13;;;2.61;56.56
46778;BME280;32536;47.128;8.746;2023-01-25T12:12:19;92314.25;;;2.68;57.57
46778;BME280;32536;47.128;8.746;2023-01-25T12:30:09;92282.28;;;2.73;58.14
46778;BME280;32536;47.128;8.746;2023-01-25T12:32:48;92283.91;;;2.78;57.79
46778;BME280;32536;47.128;8.746;2023-01-25T12:35:38;92283.31;;;2.84;57.75
46778;BME280;32536;47.128;8.746;2023-01-25T12:42:00;92278.63;;;2.78;58.28
46778;BME280;32536;47.128;8.746;2023-01-25T12:45:30;92273.81;;;2.67;58.12
46778;BME280;32536;47.128;8.746;2023-01-25T12:48:14;92267.91;;;2.58;58.09
46778;BME280;32536;47.128;8.746;2023-01-25T12:51:01;92266.03;;;2.59;58.49
46778;BME280;32536;47.128;8.746;2023-01-25T12:54:01;92259.22;;;2.58;57.41
46778;BME280;32536;47.128;8.746;2023-01-25T13:00:05;92256.97;;;2.60;57.22
46778;BME280;32536;47.128;8.746;2023-01-25T13:02:49;92252.13;;;2.62;58.19
46778;BME280;32536;47.128;8.746;2023-01-25T13:16:53;92252.69;;;2.83;58.14
46778;BME280;32536;47.128;8.746;2023-01-25T13:21:57;92239.00;;;2.81;58.06
46778;BME280;32536;47.128;8.746;2023-01-25T13:24:26;92237.22;;;2.85;58.04
46778;BME280;32536;47.128;8.746;2023-01-25T13:29:42;92224.06;;;2.89;56.45
46778;BME280;32536;47.128;8.746;2023-01-25T13:34:59;92220.31;;;2.90;57.87
46778;BME280;32536;47.128;8.746;2023-01-25T13:37:29;92222.97;;;2.90;57.51
46778;BME280;32536;47.128;8.746;2023-01-25T13:40:07;92222.13;;;2.86;57.75
46778;BME280;32536;47.128;8.746;2023-01-25T13:42:59;92215.72;;;2.87;57.40
46778;BME280;32536;47.128;8.746;2023-01-25T13:45:49;92217.25;;;2.88;57.53
46778;BME280;32536;47.128;8.746;2023-01-25T13:48:20;92222.22;;;2.90;58.19
46778;BME280;32536;47.128;8.746;2023-01-25T13:51:27;92216.56;;;2.91;57.28
46778;BME280;32536;47.128;8.746;2023-01-25T13:53:59;92212.47;;;2.94;57.45
46778;BME280;32536;47.128;8.746;2023-01-25T13:56:31;92215.28;;;3.01;57.95
46778;BME280;32536;47.128;8.746;2023-01-25T13:58:59;92216.91;;;3.06;58.03
46778;BME280;32536;47.128;8.746;2023-01-25T14:01:28;92223.41;;;3.08;58.03
46778;BME280;32536;47.128;8.746;2023-01-25T14:03:58;92223.84;;;3.10;57.84
46778;BME280;32536;47.128;8.746;2023-01-25T14:06:31;92223.84;;;3.10;57.63
46778;BME280;32536;47.128;8.746;2023-01-25T14:09:15;92216.56;;;3.07;57.55
46778;BME280;32536;47.128;8.746;2023-01-25T14:11:54;92215.03;;;3.06;56.95
46778;BME280;32536;47.128;8.746;2023-01-25T14:14:26;92210.06;;;3.04;57.55
46778;BME280;32536;47.128;8.746;2023-01-25T14:20:23;92209.16;;;2.97;57.89
46778;BME280;32536;47.128;8.746;2023-01-25T14:22:50;92206.16;;;2.98;58.12
46778;BME280;32536;47.128;8.746;2023-01-25T14:25:19;92203.50;;;2.98;58.03
46778;BME280;32536;47.128;8.746;2023-01-25T14:27:53;92210.59;;;2.94;58.48
46778;BME280;32536;47.128;8.746;2023-01-25T14:30:25;92207.78;;;2.87;58.11
46778;BME280;32536;47.128;8.746;2023-01-25T14:32:55;92207.94;;;2.78;58.48
46778;BME280;32536;47.128;8.746;2023-01-25T14:43:35;92193.41;;;2.40;59.43
46778;BME280;32536;47.128;8.746;2023-01-25T14:54:53;92177.16;;;2.26;59.36
46778;BME280;32536;47.128;8.746;2023-01-25T14:57:38;92182.69;;;2.20;59.31
46778;BME280;32536;47.128;8.746;2023-01-25T15:00:19;92178.09;;;2.17;59.22
46778;BME280;32536;47.128;8.746;2023-01-25T15:02:54;92177.75;;;2.19;59.22
46778;BME280;32536;47.128;8.746;2023-01-25T15:05:32;92177.66;;;2.15;59.29
46778;BME280;32536;47.128;8.746;2023-01-25T15:10:37;92165.91;;;2.29;59.34
46778;BME280;32536;47.128;8.746;2023-01-25T15:13:44;92161.00;;;2.43;59.25
46778;BME280;32536;47.128;8.746;2023-01-25T15:16:11;92161.09;;;2.47;58.82
46778;BME280;32536;47.128;8.746;2023-01-25T15:18:52;92159.94;;;2.48;57.96
46778;BME280;32536;47.128;8.746;2023-01-25T15:21:27;92163.91;;;2.54;58.38
46778;BME280;32536;47.128;8.746;2023-01-25T15:23:56;92166.03;;;2.64;58.94
46778;BME280;32536;47.128;8.746;2023-01-25T15:26:30;92161.59;;;2.68;58.78
46778;BME280;32536;47.128;8.746;2023-01-25T15:29:00;92162.53;;;2.76;58.21
46778;BME280;32536;47.128;8.746;2023-01-25T15:31:35;92162.28;;;2.81;58.04
46778;BME280;32536;47.128;8.746;2023-01-25T15:34:03;92163.13;;;2.85;58.21
46778;BME280;32536;47.128;8.746;2023-01-25T15:36:32;92167.75;;;2.88;58.02
46778;BME280;32536;47.128;8.746;2023-01-25T15:38:59;92159.09;;;2.92;58.21